Time;durP1;ratioP1;P1;durP2;ratioP2;P2;SDS_P1;SDS_P2;PMS_P1;PMS_P2;Temp;Humidity;BMP_temperature;BMP_pressure;BME280_temperature;BME280_humidity;BME280_pressure;Samples;Min_cycle;Max_cycle;Signal;HPM_P1;HPM_P2
2023/10/29 00:00:53;;;;;;;;;53.67;44.67;;;;;7.86;100.00;99094.53;6307057;20;2868071;-47
2023/10/29 00:03:23;;;;;;;;;71.00;53.33;;;;;7.95;100.00;99104.66;6311497;20;3653372;-47
2023/10/29 00:05:55;;;;;;;;;56.33;44.33;;;;;7.89;100.00;99113.91;6275915;20;2862785;-47
2023/10/29 00:08:25;;;;;;;;;54.33;43.33;;;;;7.67;100.00;99111.66;6312194;20;2866945;-47
2023/10/29 00:10:54;;;;;;;;;53.67;44.00;;;;;7.83;100.00;99110.75;6312840;20;2859739;-47
2023/10/29 00:13:25;;;;;;;;;42.00;33.00;;;;;7.70;100.00;99100.78;6309747;20;2853420;-47
2023/10/29 00:15:54;;;;;;;;;53.00;41.50;;;;;7.61;100.00;99109.38;6281021;20;2862773;-47
2023/10/29 00:18:22;;;;;;;;;47.50;38.50;;;;;7.88;100.00;99111.34;6280419;20;2860887;-47
2023/10/29 00:20:52;;;;;;;;;53.67;41.67;;;;;7.49;100.00;99107.41;6280374;20;3615864;-47
2023/10/29 00:23:21;;;;;;;;;53.67;44.00;;;;;7.38;100.00;99109.84;6313089;20;3615043;-48
2023/10/29 00:25:51;;;;;;;;;55.00;44.67;;;;;7.48;100.00;99111.88;6275561;20;2873801;-47
2023/10/29 00:28:20;;;;;;;;;55.67;42.33;;;;;8.01;100.00;99093.63;6308948;20;3621142;-46
2023/10/29 00:30:50;;;;;;;;;52.33;39.67;;;;;8.35;100.00;99107.59;6312361;20;3611797;-46
2023/10/29 00:33:19;;;;;;;;;46.00;37.00;;;;;8.32;100.00;99107.78;6311554;20;2839878;-45
2023/10/29 00:35:48;;;;;;;;;53.00;45.00;;;;;7.66;100.00;99109.97;6279509;20;2844045;-47
2023/10/29 00:38:18;;;;;;;;;53.67;43.33;;;;;7.54;100.00;99099.97;6279515;20;2867077;-48
2023/10/29 00:40:47;;;;;;;;;46.50;40.00;;;;;7.73;100.00;99114.94;6312287;20;2850338;-47
2023/10/29 00:43:16;;;;;;;;;51.67;40.33;;;;;8.17;100.00;99106.06;6279065;20;2865093;-47
2023/10/29 00:45:57;;;;;;;;;42.33;36.00;;;;;8.11;100.00;99105.47;6311911;20;3595144;-47
2023/10/29 00:48:26;;;;;;;;;41.00;35.67;;;;;8.17;100.00;99106.06;6280237;20;2872202;-48
2023/10/29 00:50:56;;;;;;;;;53.67;38.00;;;;;8.19;100.00;99101.47;6308571;20;3609673;-47
2023/10/29 00:53:26;;;;;;;;;48.00;42.50;;;;;8.18;100.00;99110.44;6308280;20;2847165;-47
2023/10/29 00:55:55;;;;;;;;;49.67;38.00;;;;;7.84;100.00;99110.66;6280784;20;3596103;-47
2023/10/29 00:58:25;;;;;;;;;50.00;41.50;;;;;7.92;100.00;99104.84;6275355;20;2848284;-47
2023/10/29 01:00:54;;;;;;;;;50.50;42.50;;;;;8.04;100.00;99120.16;6279686;20;2859816;-48
2023/10/29 01:03:23;;;;;;;;;48.00;40.00;;;;;8.30;100.00;99120.41;6282693;20;2850478;-47
2023/10/29 01:05:52;;;;;;;;;51.50;40.50;;;;;8.34;100.00;99127.25;6284059;20;2864945;-47
2023/10/29 01:08:22;;;;;;;;;49.00;40.00;;;;;8.13;100.00;99116.91;6284569;20;2852392;-47
2023/10/29 01:10:51;;;;;;;;;55.67;43.33;;;;;8.11;100.00;99115.31;6282863;20;3620052;-48
2023/10/29 01:13:20;;;;;;;;;48.50;39.50;;;;;7.99;100.00;99118.72;6315287;20;2855576;-47
2023/10/29 01:15:49;;;;;;;;;46.00;39.50;;;;;7.83;100.00;99105.41;6281464;20;2841014;-47
2023/10/29 01:18:19;;;;;;;;;51.00;40.00;;;;;7.59;100.00;99107.75;6284540;20;2851383;-47
2023/10/29 01:20:49;;;;;;;;;46.33;37.00;;;;;7.37;100.00;99108.09;6315326;20;2871347;-46
2023/10/29 01:23:19;;;;;;;;;44.67;37.00;;;;;7.30;100.00;99106.75;6313655;20;2858771;-47
2023/10/29 01:25:48;;;;;;;;;46.67;38.00;;;;;7.36;100.00;99095.72;6313723;20;3614211;-47
2023/10/29 01:28:17;;;;;;;;;47.50;37.00;;;;;7.49;100.00;99102.06;6284203;20;2575280;-47
2023/10/29 01:30:46;;;;;;;;;46.33;37.33;;;;;7.58;100.00;99101.53;6316612;20;3626450;-47
2023/10/29 01:33:16;;;;;;;;;52.33;40.33;;;;;7.67;100.00;99114.34;6284826;20;2866965;-47
2023/10/29 01:35:44;;;;;;;;;46.00;39.00;;;;;7.72;100.00;99107.88;6318849;20;3482535;-48
2023/10/29 01:38:13;;;;;;;;;47.50;39.50;;;;;8.12;100.00;99122.38;6310109;20;2848347;-48
2023/10/29 01:40:43;;;;;;;;;56.33;43.67;;;;;8.13;100.00;99122.25;6281563;20;2865990;-46
2023/10/29 01:43:13;;;;;;;;;51.67;41.67;;;;;8.25;100.00;99130.53;6308568;20;2863897;-48
2023/10/29 01:45:43;;;;;;;;;56.67;44.00;;;;;8.88;100.00;99132.00;6312321;20;3610673;-47
2023/10/29 01:48:13;;;;;;;;;57.67;43.33;;;;;8.59;100.00;99132.00;6314048;20;2872150;-47
2023/10/29 01:50:43;;;;;;;;;54.67;43.00;;;;;8.94;100.00;99132.44;6315236;20;3620029;-47
2023/10/29 01:53:12;;;;;;;;;51.00;44.00;;;;;8.52;100.00;99126.16;6314233;20;2857810;-47
2023/10/29 01:55:42;;;;;;;;;53.67;39.67;;;;;8.85;100.00;99134.88;6280112;20;2855566;-48
2023/10/29 01:58:11;;;;;;;;;49.00;40.00;;;;;8.72;100.00;99132.09;6311718;20;2850313;-47
2023/10/29 02:00:42;;;;;;;;;51.33;39.33;;;;;8.55;100.00;99131.31;6278739;20;2857572;-48
2023/10/29 02:03:11;;;;;;;;;54.00;42.33;;;;;8.28;100.00;99125.84;6314974;20;3603404;-47
2023/10/29 02:05:41;;;;;;;;;48.50;38.50;;;;;8.61;100.00;99126.53;6310876;20;2861490;-48
2023/10/29 02:08:10;;;;;;;;;56.00;42.33;;;;;8.33;100.00;99125.56;6279854;20;3619010;-47
2023/10/29 02:10:40;;;;;;;;;48.33;39.33;;;;;8.30;100.00;99133.78;6312389;20;2850444;-47
2023/10/29 02:13:09;;;;;;;;;51.33;41.33;;;;;8.00;100.00;99140.00;6317268;20;3585869;-47
2023/10/29 02:15:39;;;;;;;;;52.00;37.33;;;;;8.38;100.00;99126.13;6278301;20;3647161;-47
2023/10/29 02:18:08;;;;;;;;;47.67;38.67;;;;;8.57;100.00;99129.41;6318116;20;3578469;-47
2023/10/29 02:20:38;;;;;;;;;35.33;24.00;;;;;8.43;100.00;99132.09;6313572;20;2874461;-46
2023/10/29 02:23:08;;;;;;;;;45.00;33.00;;;;;8.54;100.00;99144.81;6311128;20;3613803;-47
2023/10/29 02:25:36;;;;;;;;;44.33;38.33;;;;;8.43;100.00;99147.28;6314124;20;3600287;-47
2023/10/29 02:28:07;;;;;;;;;44.50;35.50;;;;;8.76;100.00;99147.00;6280424;20;2852368;-48
2023/10/29 02:30:37;;;;;;;;;49.00;35.67;;;;;8.26;100.00;99134.91;6279530;20;3611899;-47
2023/10/29 02:33:06;;;;;;;;;38.50;33.00;;;;;8.22;100.00;99133.38;6313795;20;3556525;-48
2023/10/29 02:35:35;;;;;;;;;37.00;35.00;;;;;7.76;100.00;99128.09;6280404;20;2847147;-48
2023/10/29 02:38:04;;;;;;;;;39.33;33.67;;;;;8.59;100.00;99152.56;6283053;20;2858712;-48
2023/10/29 02:40:34;;;;;;;;;40.00;34.33;;;;;8.54;100.00;99143.00;6313583;20;2850374;-48
2023/10/29 02:43:04;;;;;;;;;40.33;33.00;;;;;8.62;100.00;99158.56;6315220;20;3601479;-48
2023/10/29 02:45:34;;;;;;;;;34.33;28.67;;;;;8.68;100.00;99158.19;6278266;20;3606520;-48
2023/10/29 02:48:05;;;;;;;;;34.67;31.00;;;;;8.04;100.00;99154.91;6311129;20;3617021;-48
2023/10/29 02:50:38;;;;;;;;;35.00;31.67;;;;;8.60;100.00;99159.63;6281003;20;3614958;-46
2023/10/29 02:53:07;;;;;;;;;26.50;26.50;;;;;8.49;100.00;99158.47;6310938;20;2848219;-48
2023/10/29 02:55:37;;;;;;;;;32.00;28.00;;;;;8.44;100.00;99149.84;6281973;20;3601504;-48
2023/10/29 02:58:06;;;;;;;;;30.67;28.67;;;;;8.57;100.00;99142.78;6314879;20;3614839;-48
2023/10/29 03:00:36;;;;;;;;;32.67;29.00;;;;;8.70;100.00;99144.72;6276579;20;2862829;-48
2023/10/29 03:03:06;;;;;;;;;37.00;31.33;;;;;8.66;100.00;99136.03;6312747;20;3609651;-47
2023/10/29 03:05:36;;;;;;;;;35.33;28.67;;;;;8.46;100.00;99142.59;6279557;20;2864937;-48
2023/10/29 03:08:25;;;;;;;;;31.00;30.00;;;;;8.48;100.00;99156.75;6307944;20;2855518;-47
2023/10/29 03:10:56;;;;;;;;;29.00;28.00;;;;;8.50;100.00;99144.13;6276058;20;3598247;-48
2023/10/29 03:13:25;;;;;;;;;37.00;33.00;;;;;8.59;100.00;99152.56;6309704;20;3616981;-48
2023/10/29 03:15:55;;;;;;;;;43.33;33.33;;;;;8.32;100.00;99137.19;6273963;20;3591954;-47
2023/10/29 03:18:25;;;;;;;;;38.33;29.00;;;;;8.75;100.00;99164.03;6276799;20;3622104;-48
2023/10/29 03:20:54;;;;;;;;;41.67;35.00;;;;;8.09;100.00;99144.81;6310082;20;3603401;-47
2023/10/29 03:23:24;;;;;;;;;41.33;35.33;;;;;8.41;100.00;99155.41;6274430;20;3613367;-47
2023/10/29 03:25:56;;;;;;;;;41.33;34.67;;;;;8.16;100.00;99161.31;6313005;20;3612859;-48
2023/10/29 03:28:25;;;;;;;;;33.33;32.00;;;;;8.16;100.00;99153.31;6276571;20;3597199;-48
2023/10/29 03:30:55;;;;;;;;;32.00;28.67;;;;;8.41;100.00;99157.22;6279451;20;2854637;-48
2023/10/29 03:33:24;;;;;;;;;34.00;31.67;;;;;8.43;100.00;99164.19;6310006;20;3599253;-48
2023/10/29 03:35:54;;;;;;;;;33.67;30.33;;;;;8.19;100.00;99161.16;6274143;20;3601292;-48
2023/10/29 03:38:23;;;;;;;;;34.67;33.33;;;;;8.33;100.00;99153.16;6313452;20;3576271;-48
2023/10/29 03:40:53;;;;;;;;;38.33;33.00;;;;;8.37;100.00;99164.53;6276152;20;2862968;-49
2023/10/29 03:43:23;;;;;;;;;40.00;32.33;;;;;8.09;100.00;99146.63;6313105;20;3611783;-47
2023/10/29 03:45:52;;;;;;;;;32.67;28.33;;;;;7.85;100.00;99156.97;6309921;20;3603330;-48
2023/10/29 03:48:21;;;;;;;;;43.00;34.33;;;;;7.94;100.00;99161.75;6312868;20;3610778;-48
2023/10/29 03:50:50;;;;;;;;;46.00;39.00;;;;;8.19;100.00;99162.97;6278607;20;2731634;-48
2023/10/29 03:53:20;;;;;;;;;43.33;36.33;;;;;8.00;100.00;99145.34;6310648;20;2869234;-48
2023/10/29 03:55:51;;;;;;;;;39.33;35.33;;;;;7.95;100.00;99165.28;6313690;20;3582591;-48
2023/10/29 03:58:20;;;;;;;;;39.00;33.33;;;;;8.04;100.00;99160.28;6279304;20;2856686;-48
2023/10/29 04:00:52;;;;;;;;;29.00;26.00;;;;;8.34;100.00;99154.88;6311062;20;3577484;-47
2023/10/29 04:03:21;;;;;;;;;31.00;29.50;;;;;7.98;100.00;99144.59;6312269;20;3477517;-47
2023/10/29 04:05:51;;;;;;;;;37.67;30.00;;;;;7.72;100.00;99145.28;6307766;20;3624253;-47
2023/10/29 04:08:20;;;;;;;;;31.00;30.67;;;;;7.93;100.00;99148.50;6311077;20;3588949;-48
2023/10/29 04:10:50;;;;;;;;;35.67;31.00;;;;;7.79;100.00;99151.97;6276057;20;3608678;-48
2023/10/29 04:13:18;;;;;;;;;32.67;29.33;;;;;7.66;100.00;99135.78;6314230;20;3591169;-48
2023/10/29 04:15:48;;;;;;;;;35.00;30.00;;;;;7.36;100.00;99141.09;6276615;20;2870180;-48
2023/10/29 04:18:18;;;;;;;;;27.33;27.33;;;;;7.52;100.00;99136.59;6313731;20;3602374;-48
2023/10/29 04:20:48;;;;;;;;;35.33;30.33;;;;;7.57;100.00;99139.00;6278442;20;2860729;-48
2023/10/29 04:23:17;;;;;;;;;34.67;30.67;;;;;7.46;100.00;99128.97;6312309;20;3609751;-47
2023/10/29 04:25:47;;;;;;;;;41.33;33.00;;;;;7.40;100.00;99134.66;6279186;20;3625324;-48
2023/10/29 04:28:16;;;;;;;;;37.67;33.67;;;;;7.18;100.00;99141.19;6310992;20;3589841;-47
2023/10/29 04:30:46;;;;;;;;;33.33;31.00;;;;;7.35;100.00;99131.38;6275566;20;2875380;-48
2023/10/29 04:33:15;;;;;;;;;32.33;30.33;;;;;7.69;100.00;99140.97;6311502;20;3601374;-48
2023/10/29 04:35:45;;;;;;;;;36.00;33.00;;;;;7.25;100.00;99139.06;6274150;20;2847217;-47
2023/10/29 04:38:14;;;;;;;;;40.67;35.00;;;;;7.21;100.00;99156.19;6312883;20;3589833;-47
2023/10/29 04:40:44;;;;;;;;;32.33;30.67;;;;;7.50;100.00;99153.66;6275426;20;2854558;-48
2023/10/29 04:43:13;;;;;;;;;38.50;33.50;;;;;7.23;100.00;99147.13;6313829;20;3556902;-48
2023/10/29 04:45:41;;;;;;;;;41.00;34.00;;;;;7.21;100.00;99151.72;6313710;20;3600349;-48
2023/10/29 04:48:10;;;;;;;;;28.50;26.00;;;;;7.29;100.00;99148.59;6274905;20;2843050;-48
2023/10/29 04:50:44;;;;;;;;;35.00;31.00;;;;;7.23;100.00;99138.28;6279907;20;2861935;-48
2023/10/29 04:53:13;;;;;;;;;34.00;32.00;;;;;7.21;100.00;99146.38;6306408;20;2862872;-47
2023/10/29 04:55:42;;;;;;;;;42.33;35.67;;;;;7.55;100.00;99144.44;6309499;20;3574314;-48
2023/10/29 04:58:12;;;;;;;;;38.67;35.67;;;;;7.59;100.00;99148.66;6274454;20;2854079;-48
2023/10/29 05:00:42;;;;;;;;;36.00;33.00;;;;;7.28;100.00;99141.53;6308513;20;3602408;-48
2023/10/29 05:03:11;;;;;;;;;38.67;32.33;;;;;7.28;100.00;99136.22;6309112;20;2860831;-48
2023/10/29 05:05:40;;;;;;;;;36.00;33.00;;;;;7.33;100.00;99136.81;6311808;20;3596243;-48
2023/10/29 05:08:10;;;;;;;;;41.67;33.33;;;;;7.71;100.00;99139.06;6274158;20;3621249;-47
2023/10/29 05:10:41;;;;;;;;;43.00;35.33;;;;;7.65;100.00;99144.78;6311667;20;3613856;-47
2023/10/29 05:13:11;;;;;;;;;49.67;36.67;;;;;7.70;100.00;99164.91;6278068;20;3624253;-48
2023/10/29 05:15:40;;;;;;;;;45.33;37.67;;;;;7.53;100.00;99146.34;6308896;20;2865940;-48
2023/10/29 05:18:09;;;;;;;;;38.33;33.33;;;;;7.59;100.00;99148.66;6312896;20;3596153;-48
2023/10/29 05:20:39;;;;;;;;;34.00;33.00;;;;;7.61;100.00;99154.78;6277558;20;2859186;-48
2023/10/29 05:23:08;;;;;;;;;38.67;35.67;;;;;7.37;100.00;99156.16;6309632;20;3589844;-48
2023/10/29 05:25:39;;;;;;;;;40.00;35.50;;;;;7.42;100.00;99154.97;6277428;20;2852593;-47
2023/10/29 05:28:08;;;;;;;;;39.50;34.00;;;;;6.99;100.00;99148.53;6311949;20;2851291;-47
2023/10/29 05:30:39;;;;;;;;;46.67;37.67;;;;;7.06;100.00;99160.59;6278556;20;2862861;-48
2023/10/29 05:33:08;;;;;;;;;51.00;42.67;;;;;7.36;100.00;99151.78;6309086;20;2862738;-47
2023/10/29 05:35:38;;;;;;;;;53.00;40.33;;;;;7.59;100.00;99151.34;6310005;20;2861768;-47
2023/10/29 05:38:08;;;;;;;;;58.67;46.00;;;;;7.41;100.00;99163.94;6308498;20;2871645;-48
2023/10/29 05:40:38;;;;;;;;;54.00;44.00;;;;;7.61;100.00;99154.78;6307362;20;2861742;-48
2023/10/29 05:43:07;;;;;;;;;42.67;36.67;;;;;7.84;100.00;99157.91;6310270;20;3579512;-49
2023/10/29 05:45:36;;;;;;;;;47.00;37.00;;;;;7.61;100.00;99168.16;6307773;20;2867068;-48
2023/10/29 05:48:05;;;;;;;;;48.00;41.00;;;;;7.51;100.00;99164.28;6314932;20;2848634;-47
2023/10/29 05:50:35;;;;;;;;;47.00;37.00;;;;;8.12;100.00;99176.72;6282153;20;2858745;-38
2023/10/29 05:53:04;;;;;;;;;50.00;40.00;;;;;8.00;100.00;99172.09;6313577;20;2849443;-39
2023/10/29 05:55:35;;;;;;;;;48.67;39.00;;;;;7.87;100.00;99181.78;6283118;20;2861901;-38
2023/10/29 05:58:06;;;;;;;;;42.67;37.00;;;;;7.75;100.00;99186.03;6312082;20;2865905;-38
2023/10/29 06:00:34;;;;;;;;;48.00;38.50;;;;;7.94;100.00;99187.63;6307611;20;2858618;-39
2023/10/29 06:03:04;;;;;;;;;56.33;42.67;;;;;7.98;100.00;99183.81;6280773;20;3626534;-39
2023/10/29 06:05:34;;;;;;;;;51.67;39.33;;;;;8.19;100.00;99193.25;6314776;20;2861863;-39
2023/10/29 06:08:05;;;;;;;;;57.67;46.33;;;;;7.99;100.00;99188.22;6311040;20;3610752;-39
2023/10/29 06:10:34;;;;;;;;;56.00;47.00;;;;;8.24;100.00;99190.28;6315056;20;3598190;-38
2023/10/29 06:13:04;;;;;;;;;71.67;56.00;;;;;7.91;100.00;99183.34;6312871;20;3614870;-38
2023/10/29 06:15:34;;;;;;;;;69.67;54.00;;;;;7.87;100.00;99185.34;6311541;20;3626306;-39
2023/10/29 06:18:06;;;;;;;;;60.00;48.67;;;;;8.17;100.00;99199.66;6312564;20;2866004;-39
2023/10/29 06:20:43;;;;;;;;;68.00;54.67;;;;;8.27;100.00;99203.50;6314165;20;3619042;-38
2023/10/29 06:23:12;;;;;;;;;64.00;51.00;;;;;7.52;100.00;99200.72;6312513;20;3615972;-47
2023/10/29 06:25:41;;;;;;;;;46.00;40.00;;;;;8.50;100.00;99207.47;6296762;20;2844145;-47
2023/10/29 06:28:11;;;;;;;;;57.00;44.67;;;;;8.25;100.00;99198.22;6281892;20;2862861;-47
2023/10/29 06:30:41;;;;;;;;;45.67;36.00;;;;;7.40;100.00;99190.75;6310609;20;3626358;-47
2023/10/29 06:33:10;;;;;;;;;44.00;37.00;;;;;8.04;100.00;99211.06;6311500;20;2859701;-47
2023/10/29 06:35:40;;;;;;;;;41.67;33.67;;;;;8.36;100.00;99216.31;6282626;20;3602439;-48
2023/10/29 06:38:10;;;;;;;;;38.67;32.33;;;;;8.79;100.00;99216.38;6281150;20;3604488;-47
2023/10/29 06:40:39;;;;;;;;;32.00;30.00;;;;;8.66;100.00;99197.59;6310302;20;2853419;-47
2023/10/29 06:43:09;;;;;;;;;27.00;25.33;;;;;8.70;100.00;99204.44;6315659;20;3587722;-46
2023/10/29 06:45:39;;;;;;;;;30.00;28.33;;;;;8.40;100.00;99212.53;6295612;20;3579634;-47
2023/10/29 06:48:09;;;;;;;;;32.33;25.33;;;;;7.39;100.00;99218.38;6277292;20;3596183;-46
2023/10/29 06:50:38;;;;;;;;;31.33;28.33;;;;;8.31;100.00;99229.09;6310878;20;3605559;-46
2023/10/29 06:53:08;;;;;;;;;29.67;25.00;;;;;8.08;100.00;99239.34;6281512;20;2851365;-46
2023/10/29 06:55:37;;;;;;;;;29.50;27.00;;;;;7.46;100.00;99225.97;6313519;20;2846266;-47
2023/10/29 06:58:06;;;;;;;;;28.00;21.50;;;;;7.56;100.00;99236.16;6278895;20;2848292;-39
2023/10/29 07:00:35;;;;;;;;;30.00;27.00;;;;;8.08;100.00;99239.34;6278364;20;2727360;-39
2023/10/29 07:03:03;;;;;;;;;25.00;22.50;;;;;8.81;100.00;99243.94;6312859;20;2835834;-39
2023/10/29 07:05:32;;;;;;;;;25.00;23.00;;;;;8.84;100.00;99232.19;6280374;20;2500531;-39
2023/10/29 07:08:01;;;;;;;;;28.50;24.00;;;;;8.27;100.00;99232.91;6280812;20;2848224;-39
2023/10/29 07:10:29;;;;;;;;;6.00;3.50;;;;;8.12;100.00;99237.34;6289012;20;1821220;-38
2023/10/29 07:12:58;;;;;;;;;38.33;27.00;;;;;8.95;100.00;99252.00;6306818;20;3630606;-39
2023/10/29 07:15:27;;;;;;;;;28.00;26.50;;;;;9.02;100.00;99241.75;6272253;20;2852499;-40
2023/10/29 07:17:56;;;;;;;;;27.50;27.50;;;;;8.84;100.00;99241.06;6271410;20;2846247;-39
2023/10/29 07:20:25;;;;;;;;;33.33;27.67;;;;;9.23;100.00;99260.97;6273315;20;3596115;-39
2023/10/29 07:22:55;;;;;;;;;29.33;23.33;;;;;9.42;100.00;99249.94;6269335;20;3576316;-39
2023/10/29 07:25:24;;;;;;;;;29.00;23.50;;;;;9.21;100.00;99252.16;6301449;20;2846193;-39
2023/10/29 07:27:53;;;;;;;;;34.00;27.67;;;;;8.71;100.00;99258.81;6272555;20;3600413;-39
2023/10/29 07:30:22;;;;;;;;;27.67;25.67;;;;;8.77;100.00;99263.84;6301270;20;3589995;-40
2023/10/29 07:32:52;;;;;;;;;36.67;29.00;;;;;8.74;100.00;99264.88;6270868;20;3617055;-47
2023/10/29 07:35:21;;;;;;;;;35.67;30.33;;;;;9.01;100.00;99259.63;6302914;20;3607740;-48
2023/10/29 07:37:50;;;;;;;;;37.33;30.00;;;;;9.61;100.00;99255.84;6269092;20;3622310;-47
2023/10/29 07:40:19;;;;;;;;;42.00;33.67;;;;;10.08;100.00;99259.94;6305334;20;3616050;-47
2023/10/29 07:42:48;;;;;;;;;31.00;30.33;;;;;10.23;100.00;99252.66;6269628;20;3602434;-47
2023/10/29 07:45:18;;;;;;;;;33.33;26.33;;;;;9.26;100.00;99252.72;6268537;20;3609626;-48
2023/10/29 07:47:46;;;;;;;;;38.67;30.00;;;;;8.90;100.00;99250.53;6306829;20;3623257;-47
2023/10/29 07:50:16;;;;;;;;;37.00;32.67;;;;;9.80;100.00;99255.50;6271762;20;3597126;-47
2023/10/29 07:52:45;;;;;;;;;32.67;30.00;;;;;10.12;100.00;99260.56;6271670;20;3608643;-45
2023/10/29 07:55:14;;;;;;;;;34.67;26.00;;;;;10.29;100.00;99252.31;6300229;20;3621667;-38
2023/10/29 07:57:44;;;;;;;;;30.33;25.33;;;;;10.37;100.00;99251.75;6268604;20;2853905;-39
2023/10/29 08:00:14;;;;;;;;;30.00;26.33;;;;;9.33;100.00;99245.19;6304237;20;3587807;-39
2023/10/29 08:02:43;;;;;;;;;21.00;18.00;;;;;10.18;100.00;99248.56;6273291;20;2483694;-38
2023/10/29 08:05:14;;;;;;;;;35.33;28.33;;;;;10.35;100.00;99252.81;6273950;20;3618027;-38
2023/10/29 08:07:43;;;;;;;;;29.00;25.67;;;;;10.82;100.00;99254.06;6303045;20;3586820;-39
2023/10/29 08:10:12;;;;;;;;;29.00;25.50;;;;;10.81;100.00;99252.38;6278661;20;2846243;-39
2023/10/29 08:12:41;;;;;;;;;29.50;23.50;;;;;11.21;100.00;99255.78;6280683;20;2839000;-39
2023/10/29 08:15:10;;;;;;;;;22.00;21.00;;;;;11.51;100.00;99247.38;6277437;20;2835834;-39
2023/10/29 08:17:40;;;;;;;;;27.33;23.67;;;;;10.74;100.00;99255.50;6277859;20;2840641;-39
2023/10/29 08:20:10;;;;;;;;;25.33;22.33;;;;;10.69;100.00;99249.56;6315069;20;3589965;-47
2023/10/29 08:22:40;;;;;;;;;30.67;27.00;;;;;10.94;100.00;99253.22;6278615;20;3592074;-48
2023/10/29 08:25:11;;;;;;;;;29.33;29.00;;;;;11.31;100.00;99253.31;6313779;20;3602372;-47
2023/10/29 08:27:40;;;;;;;;;26.00;24.00;;;;;11.24;100.00;99255.56;6279538;20;3583690;-48
2023/10/29 08:30:11;;;;;;;;;35.00;30.00;;;;;11.34;100.00;99261.16;6279784;20;3589981;-48
2023/10/29 08:32:40;;;;;;;;;34.33;30.33;;;;;12.14;100.00;99260.72;6311048;20;3592988;-47
2023/10/29 08:35:09;;;;;;;;;34.67;31.67;;;;;12.40;100.00;99251.56;6283281;20;3610734;-47
2023/10/29 08:37:39;;;;;;;;;42.00;35.33;;;;;11.88;100.00;99250.06;6274042;20;3613806;-48
2023/10/29 08:40:08;;;;;;;;;21.33;18.00;;;;;11.73;100.00;99251.16;6314467;20;3579524;-47
2023/10/29 08:42:37;;;;;;;;;35.33;32.00;;;;;12.65;100.00;99255.91;6313282;20;3606504;-47
2023/10/29 08:45:07;;;;;;;;;35.00;29.00;;;;;11.92;100.00;99246.16;6279896;20;3623385;-48
2023/10/29 08:47:36;;;;;;;;;31.00;29.33;;;;;11.84;100.00;99251.22;6278972;20;3595093;-48
2023/10/29 08:50:09;;;;;;;;;31.00;28.00;;;;;11.91;100.00;99249.84;6282604;20;3610769;-47
2023/10/29 08:52:38;;;;;;;;;33.67;28.33;;;;;12.45;100.00;99244.00;6280988;20;3610671;-48
2023/10/29 08:55:07;;;;;;;;;31.33;29.33;;;;;12.87;100.00;99238.06;6282213;20;3584676;-48
2023/10/29 08:57:35;;;;;;;;;29.33;25.67;;;;;12.66;100.00;99241.44;6277017;20;3597270;-47
2023/10/29 09:00:06;;;;;;;;;22.00;20.67;;;;;13.54;100.00;99243.53;6278446;20;2850293;-48
2023/10/29 09:02:36;;;;;;;;;20.33;20.33;;;;;13.85;100.00;99246.44;6310201;20;2840916;-47
2023/10/29 09:05:07;;;;;;;;;24.33;24.33;;;;;13.73;100.00;99240.19;6313330;20;3584808;-47
2023/10/29 09:07:36;;;;;;;;;24.67;22.33;;;;;13.21;100.00;99247.03;6275701;20;3570061;-46
2023/10/29 09:10:05;;;;;;;;;24.33;20.67;;;;;13.20;100.00;99250.72;6279526;20;3566980;-47
2023/10/29 09:12:34;;;;;;;;;25.00;20.33;;;;;12.89;100.00;99242.34;6277108;20;3579491;-45
2023/10/29 09:15:04;;;;;;;;;23.50;22.00;;;;;13.05;100.00;99246.53;6277330;20;2841986;-45
2023/10/29 09:17:32;;;;;;;;;21.67;17.67;;;;;13.87;100.00;99238.19;6282429;20;3567069;-47
2023/10/29 09:20:03;;;;;;;;;23.50;20.50;;;;;13.03;100.00;99243.97;6278213;20;2833649;-45
2023/10/29 09:22:32;;;;;;;;;26.33;23.67;;;;;13.47;100.00;99244.13;6286456;20;3571130;-48
2023/10/29 09:25:01;;;;;;;;;18.50;17.50;;;;;13.26;100.00;99234.09;6281334;20;2821532;-52
2023/10/29 09:27:30;;;;;;;;;23.00;21.67;;;;;14.07;100.00;99242.78;6283354;20;3569127;-46
2023/10/29 09:29:59;;;;;;;;;23.50;20.00;;;;;13.65;100.00;99229.16;6278214;20;2832627;-48
2023/10/29 09:32:28;;;;;;;;;24.00;21.33;;;;;14.25;100.00;99237.72;6282914;20;3583952;-46
2023/10/29 09:34:57;;;;;;;;;18.67;16.67;;;;;14.65;100.00;99235.19;6306230;20;3565866;-45
2023/10/29 09:37:26;;;;;;;;;20.67;20.00;;;;;14.49;100.00;99235.63;6275434;20;3573294;-46
2023/10/29 09:39:55;;;;;;;;;22.33;21.33;;;;;14.69;100.00;99227.69;6276983;20;3569144;-46
2023/10/29 09:42:29;;;;;;;;;20.00;18.00;;;;;15.18;100.00;99222.56;6308211;20;2839976;-45
2023/10/29 09:45:00;;;;;;;;;22.00;19.33;;;;;14.31;100.00;99230.94;6286378;20;3573217;-46
2023/10/29 09:47:32;;;;;;;;;20.67;20.67;;;;;15.05;100.00;99226.34;6280058;20;3573592;-44
2023/10/29 09:50:01;;;;;;;;;26.33;22.67;;;;;15.51;100.00;99222.28;6281141;20;2845167;-46
2023/10/29 09:52:33;;;;;;;;;20.33;19.67;;;;;14.75;100.00;99223.63;6312576;20;3565962;-47
2023/10/29 09:55:04;;;;;;;;;19.00;19.00;;;;;15.61;100.00;99219.56;6278259;20;2844036;-48
2023/10/29 09:57:33;;;;;;;;;22.00;21.50;;;;;16.29;99.83;99217.00;6277126;20;2845240;-45
2023/10/29 10:00:03;;;;;;;;;24.00;19.33;;;;;15.37;100.00;99226.19;6281492;20;2848198;-47
2023/10/29 10:02:32;;;;;;;;;19.33;19.33;;;;;15.84;100.00;99231.06;6315678;20;3567066;-46
2023/10/29 10:05:02;;;;;;;;;25.33;24.00;;;;;15.91;100.00;99218.69;6286241;20;3587758;-46
2023/10/29 10:07:31;;;;;;;;;23.50;22.00;;;;;15.15;100.00;99216.44;6280464;20;2843073;-46
2023/10/29 10:10:00;;;;;;;;;18.67;17.00;;;;;14.81;100.00;99206.84;6284005;20;3569097;-47
2023/10/29 10:12:29;;;;;;;;;19.00;18.67;;;;;15.42;100.00;99209.56;6282689;20;2835732;-47
2023/10/29 10:15:06;;;;;;;;;22.33;22.00;;;;;16.58;100.00;99205.31;6317770;20;3564464;-53
2023/10/29 10:17:34;;;;;;;;;23.67;22.67;;;;;15.91;100.00;99204.31;6279428;20;3585748;-51
2023/10/29 10:20:07;;;;;;;;;24.67;22.67;;;;;16.21;100.00;99197.91;6280961;20;2844122;-50
2023/10/29 10:22:36;;;;;;;;;24.00;22.33;;;;;16.06;100.00;99194.78;6314980;20;3593044;-47
2023/10/29 10:25:18;;;;;;;;;22.67;22.67;;;;;16.72;98.80;99202.16;6283095;20;2850498;-48
2023/10/29 10:28:05;;;;;;;;;21.00;19.33;;;;;16.05;98.85;99203.03;6318521;20;3555512;-50
2023/10/29 10:30:38;;;;;;;;;26.33;23.67;;;;;16.74;98.27;99192.00;6314129;20;3584711;-49
2023/10/29 10:33:22;;;;;;;;;28.00;25.67;;;;;17.02;97.15;99186.69;6282294;20;3594198;-50
2023/10/29 10:35:54;;;;;;;;;25.00;22.00;;;;;17.11;96.35;99197.50;6283312;20;2724387;-48
2023/10/29 10:38:22;;;;;;;;;24.33;22.33;;;;;17.63;94.33;99186.09;6314619;20;3589949;-48
2023/10/29 10:40:58;;;;;;;;;20.00;18.33;;;;;18.04;91.76;99192.03;6283725;20;3559780;-47
2023/10/29 10:43:28;;;;;;;;;14.00;14.00;;;;;18.17;90.07;99195.22;6278711;20;3535890;-48
2023/10/29 10:46:00;;;;;;;;;21.33;18.33;;;;;18.29;91.99;99186.81;6283071;20;3567977;-52
2023/10/29 10:48:33;;;;;;;;;14.00;14.00;;;;;18.50;90.16;99184.63;6279411;20;2805621;-41
2023/10/29 10:51:03;;;;;;;;;15.50;15.50;;;;;18.53;90.16;99188.91;6283286;20;2483753;-41
2023/10/29 10:53:33;;;;;;;;;15.00;15.00;;;;;19.36;86.46;99186.56;6280357;20;3529540;-42
2023/10/29 10:56:04;;;;;;;;;7.00;7.00;;;;;19.53;83.66;99180.16;6303867;20;2743015;-43
2023/10/29 10:58:35;;;;;;;;;1.67;1.67;;;;;19.85;77.03;99175.91;6314501;20;2735401;-42
2023/10/29 11:01:06;;;;;;;;;3.40;2.20;;;;;20.29;70.06;99172.03;6335982;20;2733736;-41
2023/10/29 11:03:35;;;;;;;;;0.00;0.00;;;;;19.66;69.30;99171.56;6318937;20;2731579;-42
2023/10/29 11:06:06;;;;;;;;;1.00;1.00;;;;;19.98;66.84;99169.09;6341076;20;2723263;-42
2023/10/29 11:08:35;;;;;;;;;4.33;0.67;;;;;19.79;66.28;99171.09;6320108;20;2725365;-42
2023/10/29 11:11:06;;;;;;;;;0.00;0.00;;;;;19.76;66.40;99173.31;6317835;20;2729438;-41